createdAt,value
2022-09-10T00:00:47.330Z,90.69
2022-09-10T00:01:47.427Z,90.69
2022-09-10T00:02:47.314Z,90.18
2022-09-10T00:03:47.302Z,90.69
2022-09-10T00:04:47.317Z,90.38
2022-09-10T00:05:47.268Z,90.62
2022-09-10T00:06:47.360Z,90.83
2022-09-10T00:07:47.224Z,90.32
2022-09-10T00:08:47.252Z,90.32
2022-09-10T00:09:47.232Z,90.32
2022-09-10T00:10:47.182Z,90.28
2022-09-10T00:11:47.254Z,90.22
2022-09-10T00:12:47.160Z,90.62
2022-09-10T00:13:47.161Z,90.89
2022-09-10T00:14:47.180Z,90.58
2022-09-10T00:15:47.128Z,90.42
2022-09-10T00:16:47.247Z,90.62
2022-09-10T00:17:47.119Z,90.83
2022-09-10T00:18:47.125Z,90.42
2022-09-10T00:19:47.128Z,90.62
2022-09-10T00:20:47.110Z,90.93
2022-09-10T00:21:47.417Z,90.97
2022-09-10T00:22:47.069Z,90.77
2022-09-10T00:23:47.059Z,90.57
2022-09-10T00:24:47.079Z,90.77
2022-09-10T00:25:47.083Z,91.08
2022-09-10T00:26:47.095Z,91.28
2022-09-10T00:27:47.072Z,91.32
2022-09-10T00:28:46.991Z,91.42
2022-09-10T00:29:46.995Z,91.22
2022-09-10T00:30:47.012Z,91.32
2022-09-10T00:31:47.329Z,91.42
2022-09-10T00:32:47.013Z,91.63
2022-09-10T00:34:17.921Z,92.03
2022-09-10T00:34:46.951Z,92.18
2022-09-10T00:35:46.941Z,92.13
2022-09-10T00:36:47.078Z,92.13
2022-09-10T00:37:46.909Z,91.93
2022-09-10T00:38:46.957Z,92.24
2022-09-10T00:39:46.977Z,92.68
2022-09-10T00:40:46.863Z,92.38
2022-09-10T00:41:46.978Z,92.38
2022-09-10T00:42:46.864Z,92.68
2022-09-10T00:43:46.880Z,92.58
2022-09-10T00:44:46.822Z,92.38
2022-09-10T00:45:46.880Z,92.68
2022-09-10T00:46:46.900Z,92.68
2022-09-10T00:47:46.854Z,92.79
2022-09-10T00:48:46.760Z,92.48
2022-09-10T00:49:46.792Z,92.58
2022-09-10T00:50:46.782Z,92.68
2022-09-10T00:51:46.850Z,92.48
2022-09-10T00:52:46.769Z,92.68
2022-09-10T00:53:46.755Z,92.48
2022-09-10T00:54:46.765Z,92.79
2022-09-10T00:55:46.782Z,92.79
2022-09-10T00:56:46.780Z,92.38
2022-09-10T00:57:46.714Z,92.68
2022-09-10T00:58:46.738Z,92.33
2022-09-10T00:59:46.661Z,92.68
2022-09-10T01:00:46.753Z,92.58
2022-09-10T01:01:46.690Z,92.58
2022-09-10T01:02:46.668Z,92.89
2022-09-10T01:03:46.601Z,92.58
2022-09-10T01:04:46.639Z,92.58
2022-09-10T01:05:46.720Z,92.58
2022-09-10T01:06:46.621Z,92.79
2022-09-10T01:07:46.594Z,92.68
2022-09-10T01:08:46.549Z,92.68
2022-09-10T01:09:46.598Z,92.58
2022-09-10T01:10:46.630Z,92.99
2022-09-10T01:11:46.550Z,92.99
2022-09-10T01:12:46.608Z,92.68
2022-09-10T01:13:46.549Z,92.89
2022-09-10T01:14:46.512Z,92.89
2022-09-10T01:15:46.554Z,92.68
2022-09-10T01:16:46.558Z,92.79
2022-09-10T01:17:46.514Z,92.99
2022-09-10T01:18:46.476Z,93.09
2022-09-10T01:19:46.471Z,93.29
2022-09-10T01:20:46.892Z,92.68
2022-09-10T01:21:46.430Z,93.09
2022-09-10T01:22:46.465Z,93.29
2022-09-10T01:23:46.419Z,92.58
2022-09-10T01:24:46.438Z,92.99
2022-09-10T01:25:46.479Z,92.79
2022-09-10T01:26:46.389Z,93.09
2022-09-10T01:27:46.388Z,92.89
2022-09-10T01:28:46.361Z,92.89
2022-09-10T01:29:46.385Z,92.89
2022-09-10T01:30:46.391Z,92.89
2022-09-10T01:31:46.407Z,92.99
2022-09-10T01:32:46.325Z,92.89
2022-09-10T01:33:46.331Z,92.68
2022-09-10T01:34:46.300Z,92.99
2022-09-10T01:35:46.390Z,92.74
2022-09-10T01:36:46.343Z,93.29
2022-09-10T01:37:46.289Z,93.09
2022-09-10T01:38:46.243Z,92.79
2022-09-10T01:39:46.267Z,92.79
2022-09-10T01:40:46.321Z,92.68
2022-09-10T01:41:46.229Z,93.29
2022-09-10T01:42:46.222Z,93.19
2022-09-10T01:43:46.178Z,93.29
2022-09-10T01:44:46.189Z,93.19
2022-09-10T01:45:46.323Z,93.29
2022-09-10T01:46:46.172Z,93.19
2022-09-10T01:47:46.164Z,93.09
2022-09-10T01:48:47.168Z,93.09
2022-09-10T01:49:46.162Z,93.19
2022-09-10T01:50:46.171Z,93.19
2022-09-10T01:51:46.112Z,93.29
2022-09-10T01:52:46.098Z,93.19
2022-09-10T01:53:46.086Z,92.89
2022-09-10T01:54:46.073Z,93.29
2022-09-10T01:55:46.111Z,93.70
2022-09-10T01:56:46.018Z,93.33
2022-09-10T01:57:46.099Z,93.13
2022-09-10T01:58:46.045Z,93.40
2022-09-10T01:59:46.016Z,93.74
2022-09-10T02:00:46.374Z,93.64
2022-09-10T02:01:46.099Z,93.64
2022-09-10T02:02:45.989Z,94.05
2022-09-10T02:03:45.992Z,93.44
2022-09-10T02:04:45.984Z,93.64
2022-09-10T02:05:46.000Z,93.44
2022-09-10T02:06:45.959Z,93.64
2022-09-10T02:07:45.930Z,94.15
2022-09-10T02:08:46.000Z,93.64
2022-09-10T02:09:45.918Z,93.84
2022-09-10T02:10:45.940Z,93.60
2022-09-10T02:11:45.922Z,93.64
2022-09-10T02:12:45.940Z,94.05
2022-09-10T02:13:45.949Z,93.64
2022-09-10T02:14:45.851Z,94.05
2022-09-10T02:15:45.930Z,93.64
2022-09-10T02:16:45.880Z,93.84
2022-09-10T02:17:45.838Z,94.15
2022-09-10T02:18:45.833Z,94.25
2022-09-10T02:19:45.812Z,94.25
2022-09-10T02:20:45.857Z,94.66
2022-09-10T02:21:45.793Z,94.96
2022-09-10T02:22:46.768Z,94.66
2022-09-10T02:23:45.779Z,94.15
2022-09-10T02:24:45.768Z,94.05
2022-09-10T02:25:45.805Z,94.86
2022-09-10T02:26:45.762Z,94.76
2022-09-10T02:27:45.704Z,94.96
2022-09-10T02:28:45.714Z,94.90
2022-09-10T02:29:45.699Z,94.86
2022-09-10T02:30:45.817Z,94.76
2022-09-10T02:31:45.763Z,94.45
2022-09-10T02:32:45.651Z,94.66
2022-09-10T02:33:45.698Z,94.15
2022-09-10T02:34:45.664Z,94.56
2022-09-10T02:35:45.692Z,94.56
2022-09-10T02:36:45.628Z,94.15
2022-09-10T02:37:45.641Z,94.56
2022-09-10T02:38:45.631Z,94.66
2022-09-10T02:39:45.633Z,94.15
2022-09-10T02:40:45.965Z,94.76
2022-09-10T02:41:45.582Z,94.15
2022-09-10T02:42:45.564Z,94.86
2022-09-10T02:43:45.538Z,95.01
2022-09-10T02:44:45.543Z,94.96
2022-09-10T02:45:45.600Z,94.76
2022-09-10T02:46:45.572Z,94.76
2022-09-10T02:47:45.492Z,94.35
2022-09-10T02:48:45.505Z,94.86
2022-09-10T02:49:45.462Z,95.10
2022-09-10T02:50:45.538Z,94.90
2022-09-10T02:51:45.468Z,94.70
2022-09-10T02:52:45.456Z,94.60
2022-09-10T02:53:45.445Z,94.70
2022-09-10T02:54:45.489Z,94.60
2022-09-10T02:55:45.500Z,95.31
2022-09-10T02:56:45.409Z,94.80
2022-09-10T02:57:45.426Z,95.10
2022-09-10T02:58:45.362Z,94.80
2022-09-10T02:59:45.429Z,95.21
2022-09-10T03:00:45.486Z,94.76
2022-09-10T03:01:45.426Z,94.90
2022-09-10T03:02:45.332Z,94.76
2022-09-10T03:03:45.321Z,94.56
2022-09-10T03:04:45.309Z,94.86
2022-09-10T03:05:45.355Z,94.86
2022-09-10T03:06:45.334Z,94.86
2022-09-10T03:07:45.294Z,94.56
2022-09-10T03:08:45.321Z,94.45
2022-09-10T03:09:45.257Z,94.25
2022-09-10T03:10:45.286Z,94.66
2022-09-10T03:11:45.273Z,94.35
2022-09-10T03:12:45.218Z,94.05
2022-09-10T03:13:45.200Z,94.05
2022-09-10T03:14:45.217Z,94.61
2022-09-10T03:15:45.258Z,94.82
2022-09-10T03:16:45.192Z,95.06
2022-09-10T03:17:45.183Z,94.82
2022-09-10T03:18:45.166Z,94.31
2022-09-10T03:19:45.159Z,94.21
2022-09-10T03:20:45.184Z,93.70
2022-09-10T03:21:45.134Z,93.80
2022-09-10T03:22:45.129Z,93.49
2022-09-10T03:23:45.103Z,93.70
2022-09-10T03:24:45.070Z,93.70
2022-09-10T03:25:47.956Z,93.90
2022-09-10T03:26:46.121Z,94.86
2022-09-10T03:27:45.083Z,94.96
2022-09-10T03:28:45.042Z,94.92
2022-09-10T03:29:45.062Z,95.02
2022-09-10T03:30:45.086Z,94.96
2022-09-10T03:31:45.045Z,95.12
2022-09-10T03:32:44.995Z,94.92
2022-09-10T03:33:45.024Z,94.21
2022-09-10T03:34:44.987Z,94.31
2022-09-10T03:35:45.049Z,94.35
2022-09-10T03:36:44.985Z,93.70
2022-09-10T03:37:44.948Z,94.66
2022-09-10T03:38:44.921Z,94.86
2022-09-10T03:39:44.939Z,94.15
2022-09-10T03:40:44.972Z,94.40
2022-09-10T03:41:44.992Z,94.60
2022-09-10T03:42:44.942Z,95.01
2022-09-10T03:43:44.879Z,94.70
2022-09-10T03:44:44.875Z,94.80
2022-09-10T03:45:44.957Z,95.01
2022-09-10T03:46:44.868Z,94.70
2022-09-10T03:47:44.841Z,94.80
2022-09-10T03:48:44.818Z,95.21
2022-09-10T03:49:44.866Z,95.15
2022-09-10T03:50:44.944Z,95.76
2022-09-10T03:51:44.798Z,95.56
2022-09-10T03:52:44.819Z,96.17
2022-09-10T03:53:44.776Z,96.58
2022-09-10T03:54:44.763Z,96.78
2022-09-10T03:55:44.795Z,96.58
2022-09-10T03:56:44.744Z,96.47
2022-09-10T03:57:44.749Z,96.37
2022-09-10T03:58:44.719Z,96.07
2022-09-10T03:59:44.726Z,96.27
2022-09-10T04:00:44.770Z,96.47
2022-09-10T04:01:44.753Z,96.58
2022-09-10T04:02:44.719Z,96.78
2022-09-10T04:03:44.646Z,96.78
2022-09-10T04:04:44.673Z,96.68
2022-09-10T04:05:44.722Z,96.98
2022-09-10T04:06:44.677Z,96.98
2022-09-10T04:07:44.649Z,96.98
2022-09-10T04:08:44.657Z,97.08
2022-09-10T04:09:44.601Z,97.08
2022-09-10T04:10:44.562Z,96.88
2022-09-10T04:11:44.611Z,96.92
2022-09-10T04:12:44.613Z,97.13
2022-09-10T04:13:44.564Z,97.03
2022-09-10T04:14:44.532Z,97.13
2022-09-10T04:15:44.501Z,96.88
2022-09-10T04:16:44.574Z,96.92
2022-09-10T04:17:44.526Z,97.23
2022-09-10T04:18:44.497Z,97.03
2022-09-10T04:19:44.533Z,96.83
2022-09-10T04:20:44.482Z,97.64
2022-09-10T04:21:44.509Z,97.33
2022-09-10T04:22:44.464Z,97.44
2022-09-10T04:23:44.461Z,97.64
2022-09-10T04:24:44.474Z,97.53
2022-09-10T04:25:44.425Z,97.44
2022-09-10T04:26:44.503Z,97.44
2022-09-10T04:27:44.437Z,97.23
2022-09-10T04:28:44.392Z,97.33
2022-09-10T04:29:44.402Z,97.23
2022-09-10T04:30:44.368Z,96.92
2022-09-10T04:31:44.466Z,97.44
2022-09-10T04:32:44.350Z,97.44
2022-09-10T04:33:44.348Z,97.64
2022-09-10T04:34:44.322Z,97.94
2022-09-10T04:35:45.343Z,97.74
2022-09-10T04:36:44.370Z,97.94
2022-09-10T04:37:44.283Z,98.05
2022-09-10T04:38:44.291Z,98.05
2022-09-10T04:39:44.298Z,97.89
2022-09-10T04:40:45.269Z,97.84
2022-09-10T04:41:44.301Z,97.84
2022-09-10T04:42:44.262Z,97.69
2022-09-10T04:43:44.188Z,97.69
2022-09-10T04:45:15.150Z,97.89
2022-09-10T04:45:44.223Z,97.74
2022-09-10T04:46:45.217Z,97.38
2022-09-10T04:47:44.180Z,97.28
2022-09-10T04:48:44.168Z,97.38
2022-09-10T04:49:44.153Z,97.38
2022-09-10T04:51:05.338Z,97.78
2022-09-10T04:51:46.193Z,97.38
2022-09-10T04:52:44.113Z,97.48
2022-09-10T04:53:44.128Z,97.28
2022-09-10T04:54:44.109Z,97.38
2022-09-10T04:55:44.127Z,97.07
2022-09-10T04:56:44.138Z,96.97
2022-09-10T04:57:45.084Z,97.58
2022-09-10T04:58:44.622Z,97.38
2022-09-10T04:59:44.045Z,97.33
2022-09-10T05:00:44.070Z,97.58
2022-09-10T05:01:44.060Z,97.94
2022-09-10T05:02:44.074Z,98.75
2022-09-10T05:03:44.005Z,98.86
2022-09-10T05:04:43.997Z,98.75
2022-09-10T05:05:44.042Z,98.55
2022-09-10T05:06:44.032Z,97.84
2022-09-10T05:07:43.926Z,98.41
2022-09-10T05:08:44.945Z,97.89
2022-09-10T05:09:43.954Z,97.94
2022-09-10T05:10:43.920Z,97.80
2022-09-10T05:11:43.933Z,97.60
2022-09-10T05:12:43.928Z,97.39
2022-09-10T05:13:43.892Z,97.29
2022-09-10T05:14:43.935Z,97.19
2022-09-10T05:15:43.872Z,97.29
2022-09-10T05:16:43.961Z,97.39
2022-09-10T05:17:43.857Z,96.98
2022-09-10T05:18:43.834Z,97.14
2022-09-10T05:19:43.802Z,96.73
2022-09-10T05:20:43.827Z,96.83
2022-09-10T05:21:43.893Z,96.33
2022-09-10T05:22:43.771Z,96.48
2022-09-10T05:23:43.834Z,96.48
2022-09-10T05:24:43.785Z,96.38
2022-09-10T05:25:43.774Z,96.08
2022-09-10T05:26:43.824Z,94.61
2022-09-10T05:27:43.715Z,94.92
2022-09-10T05:28:43.713Z,94.71
2022-09-10T05:29:43.721Z,93.15
2022-09-10T05:30:44.384Z,92.80
2022-09-10T05:31:43.810Z,92.80
2022-09-10T05:32:43.666Z,92.14
2022-09-10T05:33:43.682Z,91.44
2022-09-10T05:34:43.662Z,91.34
2022-09-10T05:35:43.752Z,91.44
2022-09-10T05:36:43.685Z,91.44
2022-09-10T05:37:43.659Z,90.93
2022-09-10T05:38:43.843Z,90.69
2022-09-10T05:39:44.631Z,90.38
2022-09-10T05:40:43.634Z,90.58
2022-09-10T05:41:43.626Z,90.69
2022-09-10T05:42:43.524Z,90.18
2022-09-10T05:43:43.553Z,90.18
2022-09-10T05:44:43.555Z,90.08
2022-09-10T05:45:43.542Z,89.77
2022-09-10T05:46:43.557Z,89.98
2022-09-10T05:47:43.512Z,90.48
2022-09-10T05:48:43.678Z,90.58
2022-09-10T05:49:43.499Z,90.38
2022-09-10T05:50:43.482Z,90.99
2022-09-10T05:51:43.540Z,89.77
2022-09-10T05:52:43.464Z,90.69
2022-09-10T05:53:43.487Z,90.58
2022-09-10T05:54:43.448Z,90.48
2022-09-10T05:55:43.728Z,90.58
2022-09-10T05:56:43.444Z,90.54
2022-09-10T05:57:43.430Z,90.38
2022-09-10T05:58:43.478Z,90.48
2022-09-10T05:59:43.387Z,90.03
2022-09-10T06:00:43.413Z,89.83
2022-09-10T06:01:43.431Z,90.14
2022-09-10T06:02:43.417Z,90.03
2022-09-10T06:03:43.364Z,89.73
2022-09-10T06:04:43.358Z,89.73
2022-09-10T06:05:43.362Z,89.63
2022-09-10T06:06:43.283Z,89.73
2022-09-10T06:07:43.298Z,89.63
2022-09-10T06:08:43.293Z,88.88
2022-09-10T06:09:43.319Z,89.18
2022-09-10T06:10:43.298Z,88.68
2022-09-10T06:11:43.258Z,89.39
2022-09-10T06:12:43.247Z,89.48
2022-09-10T06:13:43.298Z,89.48
2022-09-10T06:14:43.236Z,89.39
2022-09-10T06:15:43.285Z,88.53
2022-09-10T06:16:43.255Z,89.24
2022-09-10T06:17:43.198Z,89.04
2022-09-10T06:18:43.197Z,89.85
2022-09-10T06:19:43.173Z,89.89
2022-09-10T06:20:43.198Z,89.34
2022-09-10T06:21:43.142Z,89.54
2022-09-10T06:22:43.144Z,90.16
2022-09-10T06:23:43.182Z,90.16
2022-09-10T06:24:43.124Z,90.30
2022-09-10T06:25:43.163Z,90.70
2022-09-10T06:26:43.111Z,91.00
2022-09-10T06:27:43.065Z,91.11
2022-09-10T06:28:43.077Z,91.35
2022-09-10T06:29:43.090Z,92.47
2022-09-10T06:30:43.407Z,93.07
2022-09-10T06:31:43.049Z,93.48
2022-09-10T06:32:43.143Z,93.38
2022-09-10T06:33:43.026Z,93.99
2022-09-10T06:34:42.993Z,94.29
2022-09-10T06:35:43.029Z,94.54
2022-09-10T06:36:43.001Z,94.54
2022-09-10T06:37:42.967Z,94.43
2022-09-10T06:38:42.992Z,93.93
2022-09-10T06:39:43.011Z,94.54
2022-09-10T06:40:42.986Z,94.58
2022-09-10T06:41:45.817Z,94.22
2022-09-10T06:42:43.940Z,94.93
2022-09-10T06:43:42.933Z,95.54
2022-09-10T06:44:42.901Z,95.43
2022-09-10T06:45:42.949Z,96.10
2022-09-10T06:47:35.988Z,95.29
2022-09-10T06:48:48.047Z,94.58
2022-09-10T06:49:43.857Z,94.64
2022-09-10T06:50:42.891Z,94.84
2022-09-10T06:51:42.834Z,94.68
2022-09-10T06:52:42.815Z,94.78
2022-09-10T06:53:42.872Z,95.74
2022-09-10T06:54:42.782Z,96.41
2022-09-10T06:55:42.832Z,95.39
2022-09-10T06:56:42.752Z,94.89
2022-09-10T06:57:42.759Z,94.58
2022-09-10T06:58:42.798Z,95.29
2022-09-10T06:59:42.753Z,95.59
2022-09-10T07:00:42.737Z,96.30
2022-09-10T07:01:42.711Z,94.84
2022-09-10T07:02:42.679Z,94.74
2022-09-10T07:03:42.691Z,94.54
2022-09-10T07:04:42.678Z,94.94
2022-09-10T07:05:42.714Z,94.79
2022-09-10T07:06:42.646Z,94.54
2022-09-10T07:07:42.623Z,94.13
2022-09-10T07:08:42.645Z,94.34
2022-09-10T07:09:42.603Z,93.93
2022-09-10T07:10:42.719Z,94.09
2022-09-10T07:11:42.548Z,94.70
2022-09-10T07:12:42.577Z,93.13
2022-09-10T07:13:42.582Z,93.03
2022-09-10T07:14:42.635Z,92.72
2022-09-10T07:15:42.669Z,92.72
2022-09-10T07:16:43.570Z,92.32
2022-09-10T07:17:42.531Z,92.22
2022-09-10T07:18:42.578Z,92.16
2022-09-10T07:19:42.563Z,92.57
2022-09-10T07:20:42.563Z,92.83
2022-09-10T07:21:42.495Z,92.42
2022-09-10T07:22:42.595Z,92.18
2022-09-10T07:23:42.525Z,91.63
2022-09-10T07:24:42.470Z,91.42
2022-09-10T07:25:42.500Z,90.82
2022-09-10T07:26:42.485Z,91.32
2022-09-10T07:27:42.428Z,91.22
2022-09-10T07:28:42.415Z,90.21
2022-09-10T07:29:42.429Z,90.27
2022-09-10T07:30:42.467Z,90.47
2022-09-10T07:31:42.396Z,89.97
2022-09-10T07:32:42.400Z,90.47
2022-09-10T07:33:42.371Z,90.47
2022-09-10T07:34:42.368Z,90.67
2022-09-10T07:35:42.430Z,90.78
2022-09-10T07:36:42.342Z,90.07
2022-09-10T07:37:42.323Z,90.37
2022-09-10T07:38:42.337Z,90.62
2022-09-10T07:39:42.359Z,90.47
2022-09-10T07:40:42.484Z,90.67
2022-09-10T07:41:42.296Z,90.07
2022-09-10T07:42:42.280Z,89.97
2022-09-10T07:43:42.283Z,90.07
2022-09-10T07:44:42.236Z,89.87
2022-09-10T07:45:42.387Z,89.87
2022-09-10T07:46:42.248Z,90.07
2022-09-10T07:47:42.237Z,90.98
2022-09-10T07:48:42.229Z,90.37
2022-09-10T07:49:42.215Z,89.56
2022-09-10T07:50:42.449Z,89.26
2022-09-10T07:51:42.179Z,89.76
2022-09-10T07:52:42.303Z,90.23
2022-09-10T07:53:50.058Z,88.92
2022-09-10T07:54:44.159Z,89.32
2022-09-10T07:55:42.187Z,89.62
2022-09-10T07:56:42.125Z,89.48
2022-09-10T07:57:42.132Z,88.53
2022-09-10T07:58:42.173Z,89.23
2022-09-10T07:59:42.115Z,87.58
2022-09-10T08:00:42.248Z,86.07
2022-09-10T08:01:42.223Z,86.16
2022-09-10T08:02:42.143Z,85.22
2022-09-10T08:03:42.062Z,85.22
2022-09-10T08:04:42.049Z,85.08
2022-09-10T08:05:42.047Z,84.57
2022-09-10T08:06:42.019Z,84.03
2022-09-10T08:07:42.015Z,84.11
2022-09-10T08:08:42.071Z,84.91
2022-09-10T08:09:43.009Z,85.62
2022-09-10T08:10:41.980Z,85.17
2022-09-10T08:11:41.981Z,84.27
2022-09-10T08:12:41.973Z,84.27
2022-09-10T08:13:41.939Z,83.62
2022-09-10T08:14:42.085Z,84.23
2022-09-10T08:15:41.996Z,83.18
2022-09-10T08:16:44.449Z,83.12
2022-09-10T08:17:42.872Z,83.52
2022-09-10T08:18:41.946Z,82.42
2022-09-10T08:19:41.870Z,80.57
2022-09-10T08:20:41.941Z,81.41
2022-09-10T08:21:41.895Z,81.17
2022-09-10T08:22:41.924Z,81.10
2022-09-10T08:23:41.878Z,80.90
2022-09-10T08:24:41.833Z,80.77
2022-09-10T08:25:41.915Z,80.87
2022-09-10T08:26:41.867Z,81.03
2022-09-10T08:27:41.858Z,80.22
2022-09-10T08:28:41.908Z,79.68
2022-09-10T08:29:41.907Z,78.71
2022-09-10T08:30:41.864Z,79.18
2022-09-10T08:31:41.748Z,78.98
2022-09-10T08:32:41.731Z,78.78
2022-09-10T08:33:41.713Z,78.67
2022-09-10T08:34:41.855Z,79.28
2022-09-10T08:35:41.791Z,78.71
2022-09-10T08:36:41.826Z,79.62
2022-09-10T08:37:41.725Z,79.11
2022-09-10T08:38:41.742Z,79.32
2022-09-10T08:39:41.748Z,78.71
2022-09-10T08:40:41.696Z,79.66
2022-09-10T08:41:41.682Z,79.76
2022-09-10T08:42:41.641Z,80.40
2022-09-10T08:43:41.687Z,80.60
2022-09-10T08:44:41.614Z,80.80
2022-09-10T08:45:41.691Z,82.39
2022-09-10T08:46:41.603Z,82.25
2022-09-10T08:47:41.680Z,82.01
2022-09-10T08:48:41.584Z,81.85
2022-09-10T08:49:41.625Z,82.35
2022-09-10T08:50:41.609Z,82.65
2022-09-10T08:51:41.565Z,82.11
2022-09-10T08:52:41.610Z,81.27
2022-09-10T08:53:41.566Z,80.12
2022-09-10T08:54:41.517Z,79.22
2022-09-10T08:55:42.742Z,79.42
2022-09-10T08:56:41.532Z,79.76
2022-09-10T08:57:41.466Z,79.72
2022-09-10T08:58:41.539Z,80.30
2022-09-10T08:59:41.448Z,79.53
2022-09-10T09:00:43.175Z,80.47
2022-09-10T09:01:41.578Z,80.98
2022-09-10T09:02:49.718Z,81.38
2022-09-10T09:03:43.423Z,82.43
2022-09-10T09:04:41.411Z,82.23
2022-09-10T09:05:41.624Z,82.09
2022-09-10T09:06:41.383Z,82.19
2022-09-10T09:07:41.361Z,82.19
2022-09-10T09:08:41.397Z,82.23
2022-09-10T09:09:41.457Z,82.43
2022-09-10T09:10:41.404Z,82.29
2022-09-10T09:11:41.363Z,81.89
2022-09-10T09:12:41.401Z,81.85
2022-09-10T09:13:41.313Z,82.29
2022-09-10T09:14:41.528Z,81.18
2022-09-10T09:15:41.378Z,80.47
2022-09-10T09:16:41.280Z,81.28
2022-09-10T09:17:41.267Z,81.42
2022-09-10T09:18:41.251Z,81.62
2022-09-10T09:19:41.261Z,82.07
2022-09-10T09:20:41.302Z,82.37
2022-09-10T09:21:41.221Z,83.18
2022-09-10T09:22:41.281Z,84.09
2022-09-10T09:23:56.877Z,82.67
2022-09-10T09:24:43.371Z,83.24
2022-09-10T09:25:41.450Z,81.82
2022-09-10T09:26:41.202Z,82.09
2022-09-10T09:27:41.222Z,81.55
2022-09-10T09:28:41.307Z,81.08
2022-09-10T09:29:41.158Z,80.58
2022-09-10T09:30:41.137Z,81.62
2022-09-10T09:31:41.144Z,81.89
2022-09-10T09:32:41.134Z,81.99
2022-09-10T09:33:41.082Z,81.59
2022-09-10T09:34:41.107Z,80.74
2022-09-10T09:35:41.283Z,80.04
2022-09-10T09:36:41.135Z,79.83
2022-09-10T09:37:41.122Z,79.36
2022-09-10T09:38:41.358Z,79.77
2022-09-10T09:39:41.198Z,79.83
2022-09-10T09:40:41.111Z,78.92
2022-09-10T09:41:41.251Z,77.98
2022-09-10T09:42:41.077Z,78.49
2022-09-10T09:43:41.016Z,78.49
2022-09-10T09:44:41.077Z,78.35
2022-09-10T09:45:40.911Z,78.25
2022-09-10T09:46:40.971Z,78.49
2022-09-10T09:47:40.965Z,78.72
2022-09-10T09:48:41.165Z,79.39
2022-09-10T09:49:40.926Z,78.45
2022-09-10T09:50:41.052Z,77.95
2022-09-10T09:51:40.922Z,78.55
2022-09-10T09:52:40.889Z,77.95
2022-09-10T09:53:44.035Z,78.05
2022-09-10T09:55:12.789Z,78.15
2022-09-10T09:55:43.019Z,78.39
2022-09-10T09:56:40.959Z,78.52
2022-09-10T09:57:40.953Z,78.52
2022-09-10T09:58:41.033Z,79.57
2022-09-10T09:59:40.829Z,80.68
2022-09-10T10:00:41.014Z,80.33
2022-09-10T10:01:40.929Z,79.19
2022-09-10T10:02:41.055Z,79.29
2022-09-10T10:03:40.774Z,78.85
2022-09-10T10:04:42.358Z,77.34
2022-09-10T10:05:41.842Z,76.43
2022-09-10T10:06:40.835Z,77.11
2022-09-10T10:07:40.833Z,77.95
2022-09-10T10:08:40.989Z,78.19
2022-09-10T10:09:40.699Z,79.09
2022-09-10T10:10:40.728Z,78.89
2022-09-10T10:11:40.796Z,78.15
2022-09-10T10:12:40.631Z,77.14
2022-09-10T10:13:40.643Z,76.70
2022-09-10T10:14:40.663Z,76.36
2022-09-10T10:15:40.725Z,75.42
2022-09-10T10:16:40.637Z,74.48
2022-09-10T10:17:40.597Z,73.98
2022-09-10T10:18:40.792Z,73.38
2022-09-10T10:19:40.690Z,73.84
2022-09-10T10:20:40.602Z,73.44
2022-09-10T10:21:40.592Z,73.44
2022-09-10T10:22:40.586Z,72.37
2022-09-10T10:23:40.671Z,72.47
2022-09-10T10:24:40.616Z,71.36
2022-09-10T10:25:40.541Z,71.56
2022-09-10T10:26:40.586Z,72.03
2022-09-10T10:27:40.524Z,70.96
2022-09-10T10:28:40.617Z,71.66
2022-09-10T10:29:40.597Z,72.44
2022-09-10T10:30:40.835Z,73.47
2022-09-10T10:31:40.497Z,74.04
2022-09-10T10:32:40.544Z,74.01
2022-09-10T10:33:40.529Z,73.61
2022-09-10T10:34:40.497Z,73.71
2022-09-10T10:35:40.465Z,73.50
2022-09-10T10:36:40.397Z,72.97
2022-09-10T10:37:40.413Z,72.13
2022-09-10T10:38:40.590Z,70.76
2022-09-10T10:39:40.465Z,72.30
2022-09-10T10:40:40.426Z,71.56
2022-09-10T10:41:40.396Z,71.26
2022-09-10T10:42:40.410Z,72.24
2022-09-10T10:43:40.350Z,72.40
2022-09-10T10:44:40.338Z,73.18
2022-09-10T10:45:40.370Z,73.98
2022-09-10T10:46:40.364Z,73.94
2022-09-10T10:47:40.304Z,73.04
2022-09-10T10:48:40.467Z,71.80
2022-09-10T10:49:40.269Z,70.89
2022-09-10T10:50:40.326Z,71.94
2022-09-10T10:51:40.269Z,72.97
2022-09-10T10:52:40.258Z,73.47
2022-09-10T10:53:40.396Z,73.07
2022-09-10T10:54:40.252Z,72.81
2022-09-10T10:55:40.236Z,72.87
2022-09-10T10:56:40.246Z,72.77
2022-09-10T10:57:40.275Z,72.07
2022-09-10T10:58:40.263Z,71.97
2022-09-10T10:59:40.282Z,72.07
2022-09-10T11:00:40.208Z,73.14
2022-09-10T11:01:40.207Z,74.05
2022-09-10T11:02:40.139Z,74.65
2022-09-10T11:03:40.131Z,74.05
2022-09-10T11:04:40.123Z,73.71
2022-09-10T11:05:40.233Z,73.61
2022-09-10T11:06:40.113Z,73.71
2022-09-10T11:07:40.144Z,73.35
2022-09-10T11:08:40.308Z,73.71
2022-09-10T11:09:40.190Z,73.71
2022-09-10T11:10:40.104Z,73.18
2022-09-10T11:11:40.030Z,71.33
2022-09-10T11:12:40.110Z,70.53
2022-09-10T11:13:40.016Z,68.99
2022-09-10T11:14:40.089Z,68.88
2022-09-10T11:15:40.166Z,69.99
2022-09-10T11:16:40.662Z,69.26
2022-09-10T11:17:40.978Z,69.06
2022-09-10T11:18:40.026Z,68.99
2022-09-10T11:19:39.952Z,67.85
2022-09-10T11:20:39.985Z,67.22
2022-09-10T11:21:39.913Z,66.19
2022-09-10T11:22:39.929Z,66.12
2022-09-10T11:23:39.946Z,65.72
2022-09-10T11:24:39.913Z,65.28
2022-09-10T11:25:40.046Z,64.28
2022-09-10T11:26:39.875Z,64.95
2022-09-10T11:27:39.878Z,64.45
2022-09-10T11:28:39.937Z,63.95
2022-09-10T11:29:39.846Z,64.19
2022-09-10T11:30:39.886Z,62.79
2022-09-10T11:31:39.862Z,64.75
2022-09-10T11:32:39.817Z,65.72
2022-09-10T11:33:39.902Z,64.89
2022-09-10T11:34:39.785Z,63.42
2022-09-10T11:35:39.946Z,63.95
2022-09-10T11:36:39.757Z,64.22
2022-09-10T11:37:39.846Z,64.39
2022-09-10T11:38:39.803Z,61.93
2022-09-10T11:39:39.857Z,60.88
2022-09-10T11:40:39.772Z,59.02
2022-09-10T11:41:39.704Z,59.98
2022-09-10T11:42:39.687Z,59.78
2022-09-10T11:43:39.710Z,58.42
2022-09-10T11:44:39.812Z,57.80
2022-09-10T11:45:39.704Z,57.05
2022-09-10T11:46:39.682Z,56.65
2022-09-10T11:47:39.668Z,57.17
2022-09-10T11:48:39.702Z,57.95
2022-09-10T11:49:39.619Z,61.46
2022-09-10T11:50:39.683Z,64.31
2022-09-10T11:51:39.633Z,67.15
2022-09-10T11:52:39.618Z,66.45
2022-09-10T11:53:39.639Z,67.29
2022-09-10T11:54:39.629Z,68.19
2022-09-10T11:55:39.636Z,67.18
2022-09-10T11:56:39.848Z,67.99
2022-09-10T11:57:39.592Z,67.69
2022-09-10T11:58:39.608Z,68.02
2022-09-10T11:59:39.512Z,70.76
2022-09-10T12:00:39.572Z,72.06
2022-09-10T12:01:39.509Z,73.47
2022-09-10T12:02:39.539Z,72.77
2022-09-10T12:03:39.642Z,73.41
2022-09-10T12:04:41.359Z,74.35
2022-09-10T12:05:40.610Z,74.44
2022-09-10T12:06:39.459Z,75.25
2022-09-10T12:07:39.399Z,77.03
2022-09-10T12:08:39.477Z,78.17
2022-09-10T12:09:39.442Z,81.47
2022-09-10T12:10:39.471Z,82.58
2022-09-10T12:11:39.448Z,80.87
2022-09-10T12:12:39.379Z,81.85
2022-09-10T12:13:39.511Z,82.25
2022-09-10T12:14:39.410Z,81.45
2022-09-10T12:15:39.591Z,83.87
2022-09-10T12:16:39.433Z,84.41
2022-09-10T12:17:39.348Z,83.50
2022-09-10T12:18:42.668Z,84.55
2022-09-10T12:19:40.390Z,85.76
2022-09-10T12:20:39.330Z,89.70
2022-09-10T12:21:39.286Z,89.29
2022-09-10T12:22:39.296Z,89.90
2022-09-10T12:23:39.426Z,89.09
2022-09-10T12:24:39.259Z,88.24
2022-09-10T12:25:39.287Z,87.80
2022-09-10T12:26:39.208Z,86.43
2022-09-10T12:27:40.208Z,87.49
2022-09-10T12:28:39.230Z,85.68
2022-09-10T12:29:39.228Z,84.37
2022-09-10T12:30:39.234Z,85.48
2022-09-10T12:31:39.234Z,85.48
2022-09-10T12:32:39.221Z,85.88
2022-09-10T12:33:39.239Z,87.65
2022-09-10T12:34:39.177Z,87.62
2022-09-10T12:35:39.181Z,84.39
2022-09-10T12:36:39.116Z,87.31
2022-09-10T12:37:39.123Z,83.93
2022-09-10T12:38:39.097Z,85.90
2022-09-10T12:39:39.184Z,85.66
2022-09-10T12:40:39.136Z,83.81
2022-09-10T12:41:39.075Z,83.45
2022-09-10T12:42:39.092Z,82.04
2022-09-10T12:43:39.117Z,83.54
2022-09-10T12:44:39.045Z,83.89
2022-09-10T12:45:39.056Z,85.46
2022-09-10T12:46:41.838Z,85.16
2022-09-10T12:47:41.016Z,84.05
2022-09-10T12:48:39.123Z,85.05
2022-09-10T12:49:39.094Z,83.39
2022-09-10T12:50:39.020Z,84.94
2022-09-10T12:51:38.944Z,85.44
2022-09-10T12:52:38.957Z,85.24
2022-09-10T12:53:39.093Z,84.85